sensor_id;sensor_type;location;lat;lon;timestamp;temperature;humidity
24408;DHT22;12542;50.924;4.516;2023-02-28T00:01:12;2.90;99.90
24408;DHT22;12542;50.924;4.516;2023-02-28T00:03:38;2.90;99.90
24408;DHT22;12542;50.924;4.516;2023-02-28T00:06:05;3.00;99.90
24408;DHT22;12542;50.924;4.516;2023-02-28T00:08:31;2.90;99.90
24408;DHT22;12542;50.924;4.516;2023-02-28T00:11:02;2.70;99.90
24408;DHT22;12542;50.924;4.516;2023-02-28T00:13:28;2.70;99.90
24408;DHT22;12542;50.924;4.516;2023-02-28T00:16:21;2.80;99.90
24408;DHT22;12542;50.924;4.516;2023-02-28T00:18:47;2.80;99.90
24408;DHT22;12542;50.924;4.516;2023-02-28T00:21:13;2.90;99.90
24408;DHT22;12542;50.924;4.516;2023-02-28T00:23:38;2.90;99.90
24408;DHT22;12542;50.924;4.516;2023-02-28T00:26:04;3.00;99.90
24408;DHT22;12542;50.924;4.516;2023-02-28T00:28:30;2.80;99.90
24408;DHT22;12542;50.924;4.516;2023-02-28T00:31:33;3.00;99.90
24408;DHT22;12542;50.924;4.516;2023-02-28T00:33:59;2.80;99.90
24408;DHT22;12542;50.924;4.516;2023-02-28T00:36:24;2.90;99.90
24408;DHT22;12542;50.924;4.516;2023-02-28T00:38:50;3.00;99.90
24408;DHT22;12542;50.924;4.516;2023-02-28T00:41:17;2.80;99.90
24408;DHT22;12542;50.924;4.516;2023-02-28T00:43:43;2.70;99.90
24408;DHT22;12542;50.924;4.516;2023-02-28T00:46:08;2.70;99.90
24408;DHT22;12542;50.924;4.516;2023-02-28T00:48:34;2.60;99.90
24408;DHT22;12542;50.924;4.516;2023-02-28T00:51:01;2.70;99.90
24408;DHT22;12542;50.924;4.516;2023-02-28T00:53:27;2.50;99.90
24408;DHT22;12542;50.924;4.516;2023-02-28T00:55:53;2.40;99.90
24408;DHT22;12542;50.924;4.516;2023-02-28T00:58:19;2.50;99.90
24408;DHT22;12542;50.924;4.516;2023-02-28T01:00:45;2.40;99.90
24408;DHT22;12542;50.924;4.516;2023-02-28T01:03:17;2.30;99.90
24408;DHT22;12542;50.924;4.516;2023-02-28T01:05:44;2.30;99.90
24408;DHT22;12542;50.924;4.516;2023-02-28T01:08:09;2.30;99.90
24408;DHT22;12542;50.924;4.516;2023-02-28T01:10:35;2.20;99.90
24408;DHT22;12542;50.924;4.516;2023-02-28T01:13:02;2.10;99.90
24408;DHT22;12542;50.924;4.516;2023-02-28T01:15:30;2.00;99.90
24408;DHT22;12542;50.924;4.516;2023-02-28T01:17:58;2.00;99.90
24408;DHT22;12542;50.924;4.516;2023-02-28T01:20:24;1.80;99.90
24408;DHT22;12542;50.924;4.516;2023-02-28T01:22:50;1.90;99.90
24408;DHT22;12542;50.924;4.516;2023-02-28T01:25:15;1.90;99.90
24408;DHT22;12542;50.924;4.516;2023-02-28T01:27:43;1.90;99.90
24408;DHT22;12542;50.924;4.516;2023-02-28T01:30:10;1.90;99.90
24408;DHT22;12542;50.924;4.516;2023-02-28T01:32:40;1.90;99.90
24408;DHT22;12542;50.924;4.516;2023-02-28T01:35:06;1.80;99.90
24408;DHT22;12542;50.924;4.516;2023-02-28T01:37:31;1.80;99.90
24408;DHT22;12542;50.924;4.516;2023-02-28T01:39:57;1.80;99.90
24408;DHT22;12542;50.924;4.516;2023-02-28T01:42:23;1.90;99.90
24408;DHT22;12542;50.924;4.516;2023-02-28T01:45:03;2.10;99.90
24408;DHT22;12542;50.924;4.516;2023-02-28T01:47:33;2.10;99.90
24408;DHT22;12542;50.924;4.516;2023-02-28T01:50:01;2.30;99.90
24408;DHT22;12542;50.924;4.516;2023-02-28T01:52:28;2.30;99.90
24408;DHT22;12542;50.924;4.516;2023-02-28T01:54:56;2.20;99.90
24408;DHT22;12542;50.924;4.516;2023-02-28T01:57:29;2.20;99.90
24408;DHT22;12542;50.924;4.516;2023-02-28T02:00:09;2.40;99.90
24408;DHT22;12542;50.924;4.516;2023-02-28T02:02:36;2.40;99.90
24408;DHT22;12542;50.924;4.516;2023-02-28T02:05:05;2.30;99.90
24408;DHT22;12542;50.924;4.516;2023-02-28T02:07:36;2.20;99.90
24408;DHT22;12542;50.924;4.516;2023-02-28T02:10:15;2.10;99.90
24408;DHT22;12542;50.924;4.516;2023-02-28T02:18:58;1.90;99.90
24408;DHT22;12542;50.924;4.516;2023-02-28T02:35:31;2.10;99.90
24408;DHT22;12542;50.924;4.516;2023-02-28T02:41:18;1.80;99.90
24408;DHT22;12542;50.924;4.516;2023-02-28T02:43:52;1.70;99.90
24408;DHT22;12542;50.924;4.516;2023-02-28T02:46:28;1.50;99.90
24408;DHT22;12542;50.924;4.516;2023-02-28T02:48:57;1.40;99.90
24408;DHT22;12542;50.924;4.516;2023-02-28T02:51:25;1.50;99.90
24408;DHT22;12542;50.924;4.516;2023-02-28T02:54:00;1.40;99.90
24408;DHT22;12542;50.924;4.516;2023-02-28T02:56:32;1.50;99.90
24408;DHT22;12542;50.924;4.516;2023-02-28T02:59:05;1.40;99.90
24408;DHT22;12542;50.924;4.516;2023-02-28T03:01:36;1.40;99.90
24408;DHT22;12542;50.924;4.516;2023-02-28T03:04:15;1.40;99.90
24408;DHT22;12542;50.924;4.516;2023-02-28T03:06:41;1.50;99.90
24408;DHT22;12542;50.924;4.516;2023-02-28T03:09:10;1.40;99.90
24408;DHT22;12542;50.924;4.516;2023-02-28T03:11:37;1.40;99.90
24408;DHT22;12542;50.924;4.516;2023-02-28T03:17:08;1.30;99.90
24408;DHT22;12542;50.924;4.516;2023-02-28T03:19:59;1.20;99.90
24408;DHT22;12542;50.924;4.516;2023-02-28T03:30:49;1.10;99.90
24408;DHT22;12542;50.924;4.516;2023-02-28T03:33:34;1.10;99.90
24408;DHT22;12542;50.924;4.516;2023-02-28T03:36:44;1.10;99.90
24408;DHT22;12542;50.924;4.516;2023-02-28T03:39:43;1.00;99.90
24408;DHT22;12542;50.924;4.516;2023-02-28T03:42:15;0.90;99.90
24408;DHT22;12542;50.924;4.516;2023-02-28T03:47:37;0.70;99.90
24408;DHT22;12542;50.924;4.516;2023-02-28T03:50:21;0.60;99.90
24408;DHT22;12542;50.924;4.516;2023-02-28T03:52:59;0.70;99.90
24408;DHT22;12542;50.924;4.516;2023-02-28T03:55:32;0.60;99.90
24408;DHT22;12542;50.924;4.516;2023-02-28T04:03:49;0.70;99.90
24408;DHT22;12542;50.924;4.516;2023-02-28T04:06:20;0.70;99.90
24408;DHT22;12542;50.924;4.516;2023-02-28T04:08:47;0.60;99.90
24408;DHT22;12542;50.924;4.516;2023-02-28T04:13:53;0.60;99.90
24408;DHT22;12542;50.924;4.516;2023-02-28T04:16:19;0.60;99.90
24408;DHT22;12542;50.924;4.516;2023-02-28T04:18:44;0.70;99.90
24408;DHT22;12542;50.924;4.516;2023-02-28T04:21:11;0.70;99.90
24408;DHT22;12542;50.924;4.516;2023-02-28T04:23:38;0.70;99.90
24408;DHT22;12542;50.924;4.516;2023-02-28T04:26:06;0.70;99.90
24408;DHT22;12542;50.924;4.516;2023-02-28T04:28:33;0.80;99.90
24408;DHT22;12542;50.924;4.516;2023-02-28T04:31:03;0.70;99.90
24408;DHT22;12542;50.924;4.516;2023-02-28T04:33:31;0.50;99.90
24408;DHT22;12542;50.924;4.516;2023-02-28T04:36:06;0.50;99.90
24408;DHT22;12542;50.924;4.516;2023-02-28T04:38:35;0.50;99.90
24408;DHT22;12542;50.924;4.516;2023-02-28T04:41:02;0.60;99.90
24408;DHT22;12542;50.924;4.516;2023-02-28T04:43:28;0.30;99.90
24408;DHT22;12542;50.924;4.516;2023-02-28T04:45:55;0.50;99.90
24408;DHT22;12542;50.924;4.516;2023-02-28T04:48:25;0.60;99.90
24408;DHT22;12542;50.924;4.516;2023-02-28T04:50:52;0.60;99.90
24408;DHT22;12542;50.924;4.516;2023-02-28T04:53:18;0.70;99.90
24408;DHT22;12542;50.924;4.516;2023-02-28T04:55:45;0.80;99.90
24408;DHT22;12542;50.924;4.516;2023-02-28T04:58:11;0.90;99.90
24408;DHT22;12542;50.924;4.516;2023-02-28T05:00:37;1.00;99.90
24408;DHT22;12542;50.924;4.516;2023-02-28T05:03:03;1.10;99.90
24408;DHT22;12542;50.924;4.516;2023-02-28T05:05:28;1.20;99.90
24408;DHT22;12542;50.924;4.516;2023-02-28T05:07:54;1.50;99.90
24408;DHT22;12542;50.924;4.516;2023-02-28T05:10:21;1.70;99.90
24408;DHT22;12542;50.924;4.516;2023-02-28T05:12:47;1.70;99.90
24408;DHT22;12542;50.924;4.516;2023-02-28T05:15:18;1.70;99.90
24408;DHT22;12542;50.924;4.516;2023-02-28T05:17:44;1.80;99.90
24408;DHT22;12542;50.924;4.516;2023-02-28T05:20:10;1.50;99.90
24408;DHT22;12542;50.924;4.516;2023-02-28T05:22:43;1.80;99.90
24408;DHT22;12542;50.924;4.516;2023-02-28T05:25:13;1.80;99.90
24408;DHT22;12542;50.924;4.516;2023-02-28T05:27:40;1.80;99.90
24408;DHT22;12542;50.924;4.516;2023-02-28T05:30:07;1.80;99.90
24408;DHT22;12542;50.924;4.516;2023-02-28T05:32:39;1.90;99.90
24408;DHT22;12542;50.924;4.516;2023-02-28T05:35:11;2.00;99.90
24408;DHT22;12542;50.924;4.516;2023-02-28T05:37:38;2.00;99.90
24408;DHT22;12542;50.924;4.516;2023-02-28T05:40:07;1.90;99.90
24408;DHT22;12542;50.924;4.516;2023-02-28T05:42:36;1.90;99.90
24408;DHT22;12542;50.924;4.516;2023-02-28T05:45:05;2.00;99.90
24408;DHT22;12542;50.924;4.516;2023-02-28T05:47:32;2.10;99.90
24408;DHT22;12542;50.924;4.516;2023-02-28T05:49:58;2.10;99.90
24408;DHT22;12542;50.924;4.516;2023-02-28T05:52:23;2.00;99.90
24408;DHT22;12542;50.924;4.516;2023-02-28T05:54:49;1.70;99.90
24408;DHT22;12542;50.924;4.516;2023-02-28T05:57:15;1.50;99.90
24408;DHT22;12542;50.924;4.516;2023-02-28T05:59:41;1.30;99.90
24408;DHT22;12542;50.924;4.516;2023-02-28T06:02:12;1.60;99.90
24408;DHT22;12542;50.924;4.516;2023-02-28T06:04:38;1.70;99.90
24408;DHT22;12542;50.924;4.516;2023-02-28T06:07:03;1.80;99.90
24408;DHT22;12542;50.924;4.516;2023-02-28T06:09:29;2.00;99.90
24408;DHT22;12542;50.924;4.516;2023-02-28T06:11:58;2.10;99.90
24408;DHT22;12542;50.924;4.516;2023-02-28T06:14:24;2.10;99.90
24408;DHT22;12542;50.924;4.516;2023-02-28T06:16:50;2.30;99.90
24408;DHT22;12542;50.924;4.516;2023-02-28T06:19:16;2.50;99.90
24408;DHT22;12542;50.924;4.516;2023-02-28T06:21:45;2.60;99.90
24408;DHT22;12542;50.924;4.516;2023-02-28T06:24:18;2.70;99.90
24408;DHT22;12542;50.924;4.516;2023-02-28T06:26:44;2.80;99.90
24408;DHT22;12542;50.924;4.516;2023-02-28T06:29:10;2.60;99.90
24408;DHT22;12542;50.924;4.516;2023-02-28T06:31:36;2.80;99.90
24408;DHT22;12542;50.924;4.516;2023-02-28T06:34:01;2.80;99.90
24408;DHT22;12542;50.924;4.516;2023-02-28T06:36:27;2.90;99.90
24408;DHT22;12542;50.924;4.516;2023-02-28T06:38:53;3.00;99.90
24408;DHT22;12542;50.924;4.516;2023-02-28T06:41:23;3.00;99.90
24408;DHT22;12542;50.924;4.516;2023-02-28T06:43:49;3.00;99.90
24408;DHT22;12542;50.924;4.516;2023-02-28T06:46:15;2.90;99.90
24408;DHT22;12542;50.924;4.516;2023-02-28T06:48:43;2.90;99.90
24408;DHT22;12542;50.924;4.516;2023-02-28T06:51:13;3.10;99.90
24408;DHT22;12542;50.924;4.516;2023-02-28T06:53:41;3.40;99.90
24408;DHT22;12542;50.924;4.516;2023-02-28T06:56:13;4.00;99.90
24408;DHT22;12542;50.924;4.516;2023-02-28T06:58:39;4.50;99.90
24408;DHT22;12542;50.924;4.516;2023-02-28T07:01:06;4.90;99.90
24408;DHT22;12542;50.924;4.516;2023-02-28T07:03:34;5.60;99.90
24408;DHT22;12542;50.924;4.516;2023-02-28T07:06:00;6.00;99.90
24408;DHT22;12542;50.924;4.516;2023-02-28T07:08:26;6.40;99.90
24408;DHT22;12542;50.924;4.516;2023-02-28T07:10:56;6.60;99.90
24408;DHT22;12542;50.924;4.516;2023-02-28T07:13:24;7.10;99.90
24408;DHT22;12542;50.924;4.516;2023-02-28T07:15:59;7.20;99.90
24408;DHT22;12542;50.924;4.516;2023-02-28T07:18:24;7.20;99.90
24408;DHT22;12542;50.924;4.516;2023-02-28T07:20:50;6.90;99.90
24408;DHT22;12542;50.924;4.516;2023-02-28T07:23:16;6.60;99.90
24408;DHT22;12542;50.924;4.516;2023-02-28T07:25:46;6.80;99.90
24408;DHT22;12542;50.924;4.516;2023-02-28T07:28:12;7.60;99.90
24408;DHT22;12542;50.924;4.516;2023-02-28T07:30:38;8.00;99.90
24408;DHT22;12542;50.924;4.516;2023-02-28T07:33:07;8.60;99.90
24408;DHT22;12542;50.924;4.516;2023-02-28T07:35:32;9.30;99.90
24408;DHT22;12542;50.924;4.516;2023-02-28T07:37:59;10.60;97.80
24408;DHT22;12542;50.924;4.516;2023-02-28T07:40:30;11.40;95.20
24408;DHT22;12542;50.924;4.516;2023-02-28T07:42:56;12.40;92.40
24408;DHT22;12542;50.924;4.516;2023-02-28T07:45:21;12.10;92.10
24408;DHT22;12542;50.924;4.516;2023-02-28T07:47:47;13.20;90.50
24408;DHT22;12542;50.924;4.516;2023-02-28T07:50:15;13.80;84.60
24408;DHT22;12542;50.924;4.516;2023-02-28T07:52:41;13.70;82.40
24408;DHT22;12542;50.924;4.516;2023-02-28T07:55:12;12.80;85.70
24408;DHT22;12542;50.924;4.516;2023-02-28T07:57:39;13.00;85.10
24408;DHT22;12542;50.924;4.516;2023-02-28T08:00:07;12.20;84.30
24408;DHT22;12542;50.924;4.516;2023-02-28T08:02:35;12.30;86.30
24408;DHT22;12542;50.924;4.516;2023-02-28T08:05:03;11.60;89.00
24408;DHT22;12542;50.924;4.516;2023-02-28T08:07:38;12.80;87.20
24408;DHT22;12542;50.924;4.516;2023-02-28T08:10:10;12.80;81.60
24408;DHT22;12542;50.924;4.516;2023-02-28T08:12:38;13.50;82.70
24408;DHT22;12542;50.924;4.516;2023-02-28T08:15:20;13.30;79.80
24408;DHT22;12542;50.924;4.516;2023-02-28T08:17:46;12.60;79.50
24408;DHT22;12542;50.924;4.516;2023-02-28T08:20:12;13.10;79.80
24408;DHT22;12542;50.924;4.516;2023-02-28T08:22:37;12.40;80.00
24408;DHT22;12542;50.924;4.516;2023-02-28T08:25:03;12.00;80.20
24408;DHT22;12542;50.924;4.516;2023-02-28T08:27:29;11.60;78.50
24408;DHT22;12542;50.924;4.516;2023-02-28T08:29:55;10.70;80.10
24408;DHT22;12542;50.924;4.516;2023-02-28T08:32:23;9.50;85.50
24408;DHT22;12542;50.924;4.516;2023-02-28T08:34:49;9.40;85.90
24408;DHT22;12542;50.924;4.516;2023-02-28T08:37:15;8.50;89.90
24408;DHT22;12542;50.924;4.516;2023-02-28T08:39:40;8.10;90.60
24408;DHT22;12542;50.924;4.516;2023-02-28T08:42:06;8.20;91.60
24408;DHT22;12542;50.924;4.516;2023-02-28T08:44:32;8.10;90.90
24408;DHT22;12542;50.924;4.516;2023-02-28T08:46:57;8.20;90.90
24408;DHT22;12542;50.924;4.516;2023-02-28T08:49:23;8.40;91.40
24408;DHT22;12542;50.924;4.516;2023-02-28T08:51:49;8.40;90.50
24408;DHT22;12542;50.924;4.516;2023-02-28T08:54:16;8.50;90.70
24408;DHT22;12542;50.924;4.516;2023-02-28T08:56:45;8.40;90.50
24408;DHT22;12542;50.924;4.516;2023-02-28T08:59:13;8.10;90.80
24408;DHT22;12542;50.924;4.516;2023-02-28T09:01:39;7.80;91.60
24408;DHT22;12542;50.924;4.516;2023-02-28T09:04:06;7.40;92.50
24408;DHT22;12542;50.924;4.516;2023-02-28T09:06:34;8.00;91.40
24408;DHT22;12542;50.924;4.516;2023-02-28T09:09:00;8.20;92.10
24408;DHT22;12542;50.924;4.516;2023-02-28T09:11:28;8.10;91.50
24408;DHT22;12542;50.924;4.516;2023-02-28T09:13:54;7.60;92.40
24408;DHT22;12542;50.924;4.516;2023-02-28T09:16:21;7.50;91.40
24408;DHT22;12542;50.924;4.516;2023-02-28T09:18:47;7.30;91.80
24408;DHT22;12542;50.924;4.516;2023-02-28T09:21:18;7.00;92.30
24408;DHT22;12542;50.924;4.516;2023-02-28T09:23:44;7.10;93.00
24408;DHT22;12542;50.924;4.516;2023-02-28T09:26:19;7.80;92.30
24408;DHT22;12542;50.924;4.516;2023-02-28T09:28:46;7.40;91.70
24408;DHT22;12542;50.924;4.516;2023-02-28T09:31:17;7.60;90.30
24408;DHT22;12542;50.924;4.516;2023-02-28T09:33:46;7.50;90.40
24408;DHT22;12542;50.924;4.516;2023-02-28T09:36:12;7.50;90.10
24408;DHT22;12542;50.924;4.516;2023-02-28T09:38:37;7.60;90.20
24408;DHT22;12542;50.924;4.516;2023-02-28T09:41:11;7.80;90.40
24408;DHT22;12542;50.924;4.516;2023-02-28T09:43:41;7.20;90.50
24408;DHT22;12542;50.924;4.516;2023-02-28T09:46:18;7.20;91.20
24408;DHT22;12542;50.924;4.516;2023-02-28T09:48:51;7.00;90.40
24408;DHT22;12542;50.924;4.516;2023-02-28T09:54:28;6.40;92.20
24408;DHT22;12542;50.924;4.516;2023-02-28T09:57:04;6.20;91.70
24408;DHT22;12542;50.924;4.516;2023-02-28T10:02:58;5.90;92.50
24408;DHT22;12542;50.924;4.516;2023-02-28T10:05:41;6.10;92.40
24408;DHT22;12542;50.924;4.516;2023-02-28T10:11:00;6.50;91.50
24408;DHT22;12542;50.924;4.516;2023-02-28T10:16:42;6.60;87.50
24408;DHT22;12542;50.924;4.516;2023-02-28T10:19:16;6.80;84.40
24408;DHT22;12542;50.924;4.516;2023-02-28T10:22:00;6.20;85.10
24408;DHT22;12542;50.924;4.516;2023-02-28T10:24:30;6.10;83.10
24408;DHT22;12542;50.924;4.516;2023-02-28T10:29:46;6.00;84.50
24408;DHT22;12542;50.924;4.516;2023-02-28T10:32:21;6.10;83.80
24408;DHT22;12542;50.924;4.516;2023-02-28T10:37:36;6.60;82.90
24408;DHT22;12542;50.924;4.516;2023-02-28T10:40:05;6.30;81.20
24408;DHT22;12542;50.924;4.516;2023-02-28T10:42:31;5.90;80.80
24408;DHT22;12542;50.924;4.516;2023-02-28T10:45:11;6.00;81.70
24408;DHT22;12542;50.924;4.516;2023-02-28T10:47:53;6.10;81.60
24408;DHT22;12542;50.924;4.516;2023-02-28T10:50:41;5.90;81.90
24408;DHT22;12542;50.924;4.516;2023-02-28T10:55:40;5.50;83.80
24408;DHT22;12542;50.924;4.516;2023-02-28T10:58:27;5.90;84.70
24408;DHT22;12542;50.924;4.516;2023-02-28T11:00:55;5.70;85.40
24408;DHT22;12542;50.924;4.516;2023-02-28T11:03:35;5.80;84.40
24408;DHT22;12542;50.924;4.516;2023-02-28T11:06:13;6.00;83.00
24408;DHT22;12542;50.924;4.516;2023-02-28T11:11:43;5.70;84.70
24408;DHT22;12542;50.924;4.516;2023-02-28T11:14:25;5.70;85.40
24408;DHT22;12542;50.924;4.516;2023-02-28T11:16:52;6.40;85.90
24408;DHT22;12542;50.924;4.516;2023-02-28T11:19:28;6.90;85.00
24408;DHT22;12542;50.924;4.516;2023-02-28T11:22:04;7.10;81.80
24408;DHT22;12542;50.924;4.516;2023-02-28T11:24:35;7.10;80.60
24408;DHT22;12542;50.924;4.516;2023-02-28T11:27:01;7.20;80.50
24408;DHT22;12542;50.924;4.516;2023-02-28T11:29:32;6.50;79.90
24408;DHT22;12542;50.924;4.516;2023-02-28T11:34:35;6.10;80.50
24408;DHT22;12542;50.924;4.516;2023-02-28T11:37:01;5.80;81.60
24408;DHT22;12542;50.924;4.516;2023-02-28T11:39:31;5.60;83.40
24408;DHT22;12542;50.924;4.516;2023-02-28T11:50:20;6.50;82.70
24408;DHT22;12542;50.924;4.516;2023-02-28T11:52:56;6.40;83.90
24408;DHT22;12542;50.924;4.516;2023-02-28T12:06:37;6.60;82.60
24408;DHT22;12542;50.924;4.516;2023-02-28T12:09:17;6.60;81.50
24408;DHT22;12542;50.924;4.516;2023-02-28T12:12:13;6.40;81.20
24408;DHT22;12542;50.924;4.516;2023-02-28T12:14:51;6.40;80.90
24408;DHT22;12542;50.924;4.516;2023-02-28T12:17:49;6.30;80.50
24408;DHT22;12542;50.924;4.516;2023-02-28T12:20:33;6.20;81.70
24408;DHT22;12542;50.924;4.516;2023-02-28T12:28:23;6.30;81.70
24408;DHT22;12542;50.924;4.516;2023-02-28T12:31:04;6.30;79.50
24408;DHT22;12542;50.924;4.516;2023-02-28T12:33:43;6.50;77.60
24408;DHT22;12542;50.924;4.516;2023-02-28T12:36:14;6.40;77.40
24408;DHT22;12542;50.924;4.516;2023-02-28T12:38:48;6.40;78.80
24408;DHT22;12542;50.924;4.516;2023-02-28T12:41:19;6.70;78.60
24408;DHT22;12542;50.924;4.516;2023-02-28T12:43:55;6.90;76.50
24408;DHT22;12542;50.924;4.516;2023-02-28T12:46:37;6.60;76.00
24408;DHT22;12542;50.924;4.516;2023-02-28T12:49:21;6.20;77.70
24408;DHT22;12542;50.924;4.516;2023-02-28T12:51:47;6.10;78.40
24408;DHT22;12542;50.924;4.516;2023-02-28T13:02:38;6.20;77.30
24408;DHT22;12542;50.924;4.516;2023-02-28T13:13:15;6.40;77.60
24408;DHT22;12542;50.924;4.516;2023-02-28T13:16:00;6.50;77.40
24408;DHT22;12542;50.924;4.516;2023-02-28T13:18:39;6.50;76.80
24408;DHT22;12542;50.924;4.516;2023-02-28T13:21:21;6.50;76.10
24408;DHT22;12542;50.924;4.516;2023-02-28T13:34:33;6.50;78.20
24408;DHT22;12542;50.924;4.516;2023-02-28T13:40:07;6.40;76.70
24408;DHT22;12542;50.924;4.516;2023-02-28T13:42:49;6.40;77.00
24408;DHT22;12542;50.924;4.516;2023-02-28T13:45:26;6.40;77.80
24408;DHT22;12542;50.924;4.516;2023-02-28T13:47:57;6.20;77.30
24408;DHT22;12542;50.924;4.516;2023-02-28T13:58:54;6.50;78.40
24408;DHT22;12542;50.924;4.516;2023-02-28T14:06:41;6.20;78.60
24408;DHT22;12542;50.924;4.516;2023-02-28T14:11:46;6.30;79.40
24408;DHT22;12542;50.924;4.516;2023-02-28T14:17:21;6.20;79.00
24408;DHT22;12542;50.924;4.516;2023-02-28T14:19:47;6.30;77.90
24408;DHT22;12542;50.924;4.516;2023-02-28T14:28:02;6.30;80.00
24408;DHT22;12542;50.924;4.516;2023-02-28T14:33:38;6.40;79.50
24408;DHT22;12542;50.924;4.516;2023-02-28T14:36:31;6.30;79.50
24408;DHT22;12542;50.924;4.516;2023-02-28T14:39:07;6.30;81.40
24408;DHT22;12542;50.924;4.516;2023-02-28T14:41:36;6.40;81.20
24408;DHT22;12542;50.924;4.516;2023-02-28T14:44:15;6.50;79.10
24408;DHT22;12542;50.924;4.516;2023-02-28T14:46:42;6.50;79.60
24408;DHT22;12542;50.924;4.516;2023-02-28T14:51:49;6.10;82.30
24408;DHT22;12542;50.924;4.516;2023-02-28T14:54:21;6.20;81.50
24408;DHT22;12542;50.924;4.516;2023-02-28T14:56:50;6.30;82.30
24408;DHT22;12542;50.924;4.516;2023-02-28T14:59:34;6.20;81.70
24408;DHT22;12542;50.924;4.516;2023-02-28T15:02:20;6.30;82.00
24408;DHT22;12542;50.924;4.516;2023-02-28T15:05:00;6.30;81.80
24408;DHT22;12542;50.924;4.516;2023-02-28T15:07:27;6.30;81.30
24408;DHT22;12542;50.924;4.516;2023-02-28T15:10:09;6.20;82.00
24408;DHT22;12542;50.924;4.516;2023-02-28T15:12:36;6.20;83.00
24408;DHT22;12542;50.924;4.516;2023-02-28T15:15:03;6.30;82.20
24408;DHT22;12542;50.924;4.516;2023-02-28T15:17:29;6.20;82.70
24408;DHT22;12542;50.924;4.516;2023-02-28T15:19:55;6.20;83.90
24408;DHT22;12542;50.924;4.516;2023-02-28T15:22:36;6.30;84.30
24408;DHT22;12542;50.924;4.516;2023-02-28T15:25:03;6.40;84.00
24408;DHT22;12542;50.924;4.516;2023-02-28T15:27:32;6.40;82.20
24408;DHT22;12542;50.924;4.516;2023-02-28T15:30:07;6.40;82.70
24408;DHT22;12542;50.924;4.516;2023-02-28T15:32:38;6.40;82.60
24408;DHT22;12542;50.924;4.516;2023-02-28T15:35:37;6.30;82.00
24408;DHT22;12542;50.924;4.516;2023-02-28T15:38:23;6.20;83.40
24408;DHT22;12542;50.924;4.516;2023-02-28T15:40:54;6.20;83.10
24408;DHT22;12542;50.924;4.516;2023-02-28T15:43:26;6.30;84.00
24408;DHT22;12542;50.924;4.516;2023-02-28T15:51:18;6.40;83.40
24408;DHT22;12542;50.924;4.516;2023-02-28T15:53:56;6.40;83.70
24408;DHT22;12542;50.924;4.516;2023-02-28T15:56:29;6.30;83.50
24408;DHT22;12542;50.924;4.516;2023-02-28T15:59:01;6.30;85.00
24408;DHT22;12542;50.924;4.516;2023-02-28T16:01:30;6.20;84.60
24408;DHT22;12542;50.924;4.516;2023-02-28T16:04:03;6.00;84.20
24408;DHT22;12542;50.924;4.516;2023-02-28T16:09:04;5.80;86.90
24408;DHT22;12542;50.924;4.516;2023-02-28T16:11:34;5.80;87.40
24408;DHT22;12542;50.924;4.516;2023-02-28T16:14:02;6.00;86.70
24408;DHT22;12542;50.924;4.516;2023-02-28T16:16:28;6.10;85.70
24408;DHT22;12542;50.924;4.516;2023-02-28T16:18:54;6.00;85.60
24408;DHT22;12542;50.924;4.516;2023-02-28T16:21:20;5.80;86.80
24408;DHT22;12542;50.924;4.516;2023-02-28T16:23:46;5.70;88.00
24408;DHT22;12542;50.924;4.516;2023-02-28T16:26:21;5.70;88.20
24408;DHT22;12542;50.924;4.516;2023-02-28T16:28:48;5.80;87.50
24408;DHT22;12542;50.924;4.516;2023-02-28T16:31:15;5.80;87.80
24408;DHT22;12542;50.924;4.516;2023-02-28T16:33:42;5.80;87.80
24408;DHT22;12542;50.924;4.516;2023-02-28T16:36:17;5.80;87.70
24408;DHT22;12542;50.924;4.516;2023-02-28T16:38:43;5.90;88.10
24408;DHT22;12542;50.924;4.516;2023-02-28T16:41:13;5.80;88.10
24408;DHT22;12542;50.924;4.516;2023-02-28T16:43:46;5.80;88.60
24408;DHT22;12542;50.924;4.516;2023-02-28T16:46:13;5.80;88.90
24408;DHT22;12542;50.924;4.516;2023-02-28T16:48:39;5.80;89.00
24408;DHT22;12542;50.924;4.516;2023-02-28T16:51:15;5.70;89.00
24408;DHT22;12542;50.924;4.516;2023-02-28T16:53:42;5.70;89.90
24408;DHT22;12542;50.924;4.516;2023-02-28T16:56:35;5.70;90.40
24408;DHT22;12542;50.924;4.516;2023-02-28T16:59:01;5.60;90.30
24408;DHT22;12542;50.924;4.516;2023-02-28T17:01:27;5.60;90.60
24408;DHT22;12542;50.924;4.516;2023-02-28T17:03:54;5.60;90.80
24408;DHT22;12542;50.924;4.516;2023-02-28T17:06:22;5.70;90.50
24408;DHT22;12542;50.924;4.516;2023-02-28T17:08:49;5.60;91.10
24408;DHT22;12542;50.924;4.516;2023-02-28T17:11:16;5.60;91.10
24408;DHT22;12542;50.924;4.516;2023-02-28T17:13:42;5.60;91.20
24408;DHT22;12542;50.924;4.516;2023-02-28T17:16:31;5.50;91.20
24408;DHT22;12542;50.924;4.516;2023-02-28T17:18:59;5.60;91.60
24408;DHT22;12542;50.924;4.516;2023-02-28T17:21:25;5.80;91.30
24408;DHT22;12542;50.924;4.516;2023-02-28T17:23:51;5.90;91.00
24408;DHT22;12542;50.924;4.516;2023-02-28T17:26:19;5.70;91.20
24408;DHT22;12542;50.924;4.516;2023-02-28T17:28:51;5.40;91.80
24408;DHT22;12542;50.924;4.516;2023-02-28T17:31:18;5.40;92.40
24408;DHT22;12542;50.924;4.516;2023-02-28T17:33:44;5.40;91.90
24408;DHT22;12542;50.924;4.516;2023-02-28T17:36:20;5.40;92.30
24408;DHT22;12542;50.924;4.516;2023-02-28T17:38:47;5.40;92.10
24408;DHT22;12542;50.924;4.516;2023-02-28T17:41:13;5.10;92.50
24408;DHT22;12542;50.924;4.516;2023-02-28T17:43:39;5.20;92.80
24408;DHT22;12542;50.924;4.516;2023-02-28T17:46:18;5.30;92.80
24408;DHT22;12542;50.924;4.516;2023-02-28T17:48:46;5.40;92.20
24408;DHT22;12542;50.924;4.516;2023-02-28T17:51:13;5.60;92.10
24408;DHT22;12542;50.924;4.516;2023-02-28T17:53:39;5.60;92.10
24408;DHT22;12542;50.924;4.516;2023-02-28T17:56:12;5.70;92.10
24408;DHT22;12542;50.924;4.516;2023-02-28T17:58:39;5.60;92.40
24408;DHT22;12542;50.924;4.516;2023-02-28T18:01:05;5.60;92.40
24408;DHT22;12542;50.924;4.516;2023-02-28T18:03:31;5.50;92.40
24408;DHT22;12542;50.924;4.516;2023-02-28T18:05:57;5.30;92.70
24408;DHT22;12542;50.924;4.516;2023-02-28T18:08:23;5.30;93.00
24408;DHT22;12542;50.924;4.516;2023-02-28T18:10:49;5.30;93.60
24408;DHT22;12542;50.924;4.516;2023-02-28T18:13:15;5.10;93.90
24408;DHT22;12542;50.924;4.516;2023-02-28T18:15:41;5.00;94.50
24408;DHT22;12542;50.924;4.516;2023-02-28T18:18:09;5.00;94.70
24408;DHT22;12542;50.924;4.516;2023-02-28T18:20:35;4.90;95.00
24408;DHT22;12542;50.924;4.516;2023-02-28T18:23:00;4.80;95.90
24408;DHT22;12542;50.924;4.516;2023-02-28T18:25:26;4.80;96.10
24408;DHT22;12542;50.924;4.516;2023-02-28T18:27:52;4.70;96.50
24408;DHT22;12542;50.924;4.516;2023-02-28T18:30:30;4.60;96.20
24408;DHT22;12542;50.924;4.516;2023-02-28T18:32:58;4.50;95.90
24408;DHT22;12542;50.924;4.516;2023-02-28T18:35:24;4.50;96.00
24408;DHT22;12542;50.924;4.516;2023-02-28T18:40:34;4.50;96.50
24408;DHT22;12542;50.924;4.516;2023-02-28T18:43:00;4.40;96.90
24408;DHT22;12542;50.924;4.516;2023-02-28T18:45:26;4.40;97.60
24408;DHT22;12542;50.924;4.516;2023-02-28T18:47:52;4.30;98.40
24408;DHT22;12542;50.924;4.516;2023-02-28T18:50:18;4.20;98.80
24408;DHT22;12542;50.924;4.516;2023-02-28T18:52:44;4.10;98.90